CYQI

Yarmouth Airport

Yarmouth, , Canada
TAF CYQI 241742Z 2418/2506 03010KT P6SM SKC BECMG 2421/2423 08006KT RMK NXT FCST BY 250000Z
Issued Valid From Valid To
Sep-24 @ 17:42 UTC
(2 hours ago)
Sep-24 @ 18:00 UTC
(an hour ago)
Sep-25 @ 06:00 UTC
(in 11 hours)
Sep-24 @ 18:00 to Sep-24 @ 21:00
TAF CYQI 241742Z 2418/2506 03010KT P6SM SKC
Wind Visibility Clouds
30° at 10 knots Greater than 6 miles
  • Clear skies
Becoming Sep-24 @ 21:00 to Sep-25 @ 06:00
BECMG 2421/2423 08006KT RMK NXT FCST BY 250000Z
Wind Visibility Clouds
80° at 6 knots Greater than 6 miles
  • Clear skies
TAF CYQI 241742Z 2418/2506 03010KT P6SM SKC BECMG 2421/2423 08006KT RMK NXT FCST BY 250000Z
Issued Sep-24 @ 17:42 UTC
(2 hours ago)
Valid From Sep-24 @ 18:00 UTC
(an hour ago)
Valid To Sep-25 @ 06:00 UTC
(in 11 hours)
Sep-24 @ 18:00 - Sep-24 @ 21:00
Wind Visibility
30° at 10 knots Greater than 6 miles
Clouds
  • Clear skies
Becoming Sep-24 @ 21:00 - Sep-25 @ 06:00
Wind Visibility
80° at 6 knots Greater than 6 miles
Clouds
  • Clear skies